createdAt,value
2019-05-16T00:01:14.419Z,176.20
2019-05-16T00:03:44.789Z,166.33
2019-05-16T00:06:17.934Z,206.17
2019-05-16T00:08:48.448Z,189.97
2019-05-16T00:11:19.209Z,177.53
2019-05-16T00:13:49.844Z,165.27
2019-05-16T00:16:20.233Z,163.27
2019-05-16T00:18:50.568Z,156.20
2019-05-16T00:21:20.915Z,183.50
2019-05-16T00:23:51.325Z,196.07
2019-05-16T00:26:21.713Z,170.10
2019-05-16T00:28:52.384Z,166.10
2019-05-16T00:31:22.781Z,169.90
2019-05-16T00:33:53.193Z,147.67
2019-05-16T00:36:23.560Z,160.33
2019-05-16T00:38:54.035Z,158.23
2019-05-16T00:51:38.882Z,181.67
2019-05-16T00:54:09.253Z,160.47
2019-05-16T00:56:40.136Z,139.97
2019-05-16T00:59:10.676Z,167.13
2019-05-16T01:01:41.077Z,206.63
2019-05-16T01:04:11.406Z,185.30
2019-05-16T01:06:41.810Z,209.83
2019-05-16T01:09:12.564Z,202.07
2019-05-16T01:11:42.968Z,206.37
2019-05-16T01:14:13.828Z,218.50
2019-05-16T01:16:44.244Z,188.70
2019-05-16T01:19:14.610Z,207.03
2019-05-16T01:21:45.069Z,164.40
2019-05-16T01:24:15.542Z,161.03
2019-05-16T01:26:48.377Z,145.13
2019-05-16T01:29:18.883Z,85.27
2019-05-16T01:31:49.753Z,83.23
2019-05-16T01:34:20.271Z,74.33
2019-05-16T01:36:50.712Z,70.20
2019-05-16T01:39:21.429Z,68.93
2019-05-16T01:41:51.856Z,53.03
2019-05-16T01:44:22.485Z,57.43
2019-05-16T01:46:53.301Z,53.57
2019-05-16T01:49:23.756Z,52.77
2019-05-16T01:51:54.166Z,46.23
2019-05-16T01:54:24.668Z,44.97
2019-05-16T01:56:55.092Z,50.07
2019-05-16T01:59:25.486Z,53.87
2019-05-16T02:02:00.631Z,38.87
2019-05-16T02:04:28.749Z,49.73
2019-05-16T02:06:59.206Z,51.70
2019-05-16T02:09:29.572Z,42.53
2019-05-16T02:11:59.956Z,42.17
2019-05-16T02:14:30.426Z,46.50
2019-05-16T02:17:00.761Z,41.97
2019-05-16T02:19:31.123Z,42.57
2019-05-16T02:22:01.479Z,49.50
2019-05-16T02:24:31.872Z,42.10
2019-05-16T02:27:02.292Z,44.57
2019-05-16T02:29:32.646Z,41.40
2019-05-16T02:32:03.064Z,46.90
2019-05-16T02:34:33.427Z,43.30
2019-05-16T02:37:23.535Z,46.90
2019-05-16T02:39:35.827Z,68.53
2019-05-16T02:42:06.836Z,68.50
2019-05-16T02:44:40.901Z,72.80
2019-05-16T02:47:10.762Z,84.17
2019-05-16T02:49:42.202Z,87.37
2019-05-16T02:52:12.970Z,87.33
2019-05-16T02:54:43.664Z,101.47
2019-05-16T02:57:14.047Z,77.33
2019-05-16T02:59:44.999Z,71.13
2019-05-16T03:02:15.753Z,68.23
2019-05-16T03:04:47.518Z,76.80
2019-05-16T03:07:36.742Z,73.80
2019-05-16T03:09:52.074Z,88.00
2019-05-16T03:12:25.093Z,63.03
2019-05-16T03:15:01.828Z,62.60
2019-05-16T03:17:35.059Z,60.93
2019-05-16T03:20:10.541Z,56.50
2019-05-16T03:22:41.741Z,63.97
2019-05-16T03:25:12.185Z,55.53
2019-05-16T03:27:42.914Z,50.97
2019-05-16T03:30:17.041Z,55.67
2019-05-16T03:32:47.785Z,54.20
2019-05-16T03:35:23.874Z,48.47
2019-05-16T03:37:57.107Z,65.10
2019-05-16T03:40:26.011Z,46.47
2019-05-16T03:42:56.605Z,52.73
2019-05-16T03:45:31.669Z,62.60
2019-05-16T03:48:02.602Z,56.07
2019-05-16T03:50:31.009Z,55.43
2019-05-16T03:53:01.830Z,59.43
2019-05-16T03:55:32.815Z,61.23
2019-05-16T03:58:03.242Z,62.73
2019-05-16T04:03:35.211Z,77.07
2019-05-16T04:06:05.867Z,66.17
2019-05-16T04:08:36.286Z,63.67
2019-05-16T04:11:06.993Z,71.77
2019-05-16T04:13:40.809Z,72.63
2019-05-16T04:16:11.790Z,69.07
2019-05-16T04:18:42.166Z,89.23
2019-05-16T04:21:12.640Z,75.53
2019-05-16T04:23:43.041Z,80.10
2019-05-16T04:26:13.423Z,69.00
2019-05-16T04:28:43.854Z,63.17
2019-05-16T04:31:14.152Z,58.30
2019-05-16T04:33:44.593Z,68.83
2019-05-16T04:36:14.948Z,63.97
2019-05-16T04:38:46.950Z,61.87
2019-05-16T04:41:20.815Z,57.33
2019-05-16T04:43:50.764Z,49.53
2019-05-16T04:46:21.796Z,62.70
2019-05-16T04:48:52.500Z,57.73
2019-05-16T04:51:22.843Z,64.30
2019-05-16T04:53:53.241Z,69.33
2019-05-16T04:56:23.698Z,77.90
2019-05-16T04:58:54.174Z,88.53
2019-05-16T05:01:24.544Z,67.13
2019-05-16T05:04:06.122Z,70.43
2019-05-16T05:06:27.022Z,55.97
2019-05-16T05:09:02.949Z,56.37
2019-05-16T05:11:30.892Z,59.77
2019-05-16T05:14:01.561Z,37.87
2019-05-16T05:16:31.989Z,27.80
2019-05-16T05:19:02.359Z,32.17
2019-05-16T05:21:32.837Z,25.50
2019-05-16T05:24:05.524Z,24.70
2019-05-16T05:26:36.082Z,31.20
2019-05-16T05:29:06.500Z,28.57
2019-05-16T05:31:43.634Z,36.03
2019-05-16T05:34:10.685Z,40.97
2019-05-16T05:36:41.159Z,51.57
2019-05-16T05:39:15.350Z,53.87
2019-05-16T05:41:44.198Z,74.77
2019-05-16T05:44:15.982Z,62.80
2019-05-16T05:46:46.404Z,70.03
2019-05-16T05:49:16.862Z,58.63
2019-05-16T05:51:49.901Z,73.23
2019-05-16T05:54:20.362Z,73.50
2019-05-16T05:56:50.954Z,65.10
2019-05-16T05:59:21.365Z,75.13
2019-05-16T06:01:52.031Z,61.63
2019-05-16T06:04:23.168Z,72.30
2019-05-16T06:06:53.621Z,65.53
2019-05-16T06:09:29.108Z,96.43
2019-05-16T06:11:56.341Z,72.10
2019-05-16T06:14:26.791Z,84.00
2019-05-16T06:16:57.372Z,66.97
2019-05-16T06:19:29.769Z,77.63
2019-05-16T06:22:00.997Z,92.00
2019-05-16T06:24:32.157Z,97.77
2019-05-16T06:27:02.634Z,78.03
2019-05-16T06:29:33.401Z,85.60
2019-05-16T06:32:03.972Z,83.60
2019-05-16T06:34:34.584Z,85.45
2019-05-16T06:37:04.996Z,83.60
2019-05-16T06:39:41.917Z,84.60
2019-05-16T06:42:09.827Z,78.23
2019-05-16T06:44:40.258Z,66.97
2019-05-16T06:47:19.406Z,197.47
2019-05-16T06:49:43.043Z,75.53
2019-05-16T06:52:13.849Z,78.07
2019-05-16T06:54:44.494Z,75.53
2019-05-16T06:57:15.321Z,70.07
2019-05-16T06:59:45.849Z,76.72
2019-05-16T07:02:29.708Z,82.73
2019-05-16T07:04:50.462Z,66.80
2019-05-16T07:07:20.617Z,73.07
2019-05-16T07:10:00.232Z,66.17
2019-05-16T07:12:23.168Z,64.50
2019-05-16T07:14:53.576Z,57.48
2019-05-16T07:17:24.012Z,51.40
2019-05-16T07:19:54.536Z,54.70
2019-05-16T07:22:24.956Z,71.20
2019-05-16T07:24:55.464Z,54.43
2019-05-16T07:27:26.366Z,58.17
2019-05-16T07:29:58.467Z,56.43
2019-05-16T07:32:30.208Z,56.83
2019-05-16T07:35:01.140Z,55.07
2019-05-16T07:37:31.804Z,57.27
2019-05-16T07:40:16.056Z,51.92
2019-05-16T07:42:34.956Z,46.83
2019-05-16T07:45:06.689Z,48.30
2019-05-16T07:47:37.162Z,43.85
2019-05-16T07:50:10.204Z,46.10
2019-05-16T07:52:40.322Z,49.35
2019-05-16T07:55:11.560Z,47.03
2019-05-16T07:57:42.069Z,38.33
2019-05-16T08:00:12.784Z,39.35
2019-05-16T08:05:21.052Z,36.15
2019-05-16T08:07:53.659Z,26.60
2019-05-16T08:10:36.450Z,27.05
2019-05-16T08:12:56.634Z,24.72
2019-05-16T08:15:27.119Z,27.07
2019-05-16T08:17:57.535Z,24.87
2019-05-16T08:20:31.055Z,25.97
2019-05-16T08:23:00.840Z,25.20
2019-05-16T08:25:31.570Z,24.67
2019-05-16T08:28:01.946Z,21.57
2019-05-16T08:30:33.462Z,22.05
2019-05-16T08:33:04.171Z,28.02
2019-05-16T08:35:34.537Z,19.02
2019-05-16T08:38:05.575Z,14.30
2019-05-16T08:41:01.161Z,6.95
2019-05-16T08:43:08.068Z,10.15
2019-05-16T08:45:41.757Z,9.65
2019-05-16T08:48:11.542Z,7.17
2019-05-16T08:50:50.192Z,8.75
2019-05-16T08:53:15.328Z,11.45
2019-05-16T08:55:46.045Z,8.50
2019-05-16T08:58:16.444Z,5.37
2019-05-16T09:00:47.389Z,9.05
2019-05-16T09:03:21.835Z,6.35
2019-05-16T09:05:53.397Z,6.62
2019-05-16T09:08:22.738Z,6.67
2019-05-16T09:11:01.781Z,6.37
2019-05-16T09:13:27.626Z,5.62
2019-05-16T09:15:58.794Z,6.03
2019-05-16T09:18:29.275Z,10.25
2019-05-16T09:20:59.759Z,14.65
2019-05-16T09:23:30.173Z,26.42
2019-05-16T09:26:00.549Z,23.67
2019-05-16T09:28:30.866Z,29.75
2019-05-16T09:31:01.610Z,26.10
2019-05-16T09:33:32.140Z,23.27
2019-05-16T09:36:02.510Z,18.23
2019-05-16T09:38:33.156Z,16.05
2019-05-16T09:41:07.676Z,15.80
2019-05-16T09:43:38.864Z,21.27
2019-05-16T09:46:08.761Z,20.90
2019-05-16T09:48:40.782Z,23.80
2019-05-16T09:51:12.735Z,27.42
2019-05-16T09:53:43.237Z,28.45
2019-05-16T09:56:16.654Z,30.25
2019-05-16T09:58:47.048Z,32.13
2019-05-16T10:01:17.785Z,34.00
2019-05-16T10:03:48.244Z,37.77
2019-05-16T10:06:19.395Z,41.75
2019-05-16T10:08:50.052Z,35.40
2019-05-16T10:11:20.548Z,32.08
2019-05-16T10:13:50.956Z,42.27
2019-05-16T10:16:21.374Z,39.97
2019-05-16T10:18:53.065Z,45.23
2019-05-16T10:21:23.533Z,49.10
2019-05-16T10:23:56.391Z,46.77
2019-05-16T10:26:27.708Z,69.13
2019-05-16T10:28:58.623Z,65.00
2019-05-16T10:31:41.308Z,55.57
2019-05-16T10:34:01.947Z,73.17
2019-05-16T10:36:32.674Z,75.70
2019-05-16T10:39:07.293Z,63.83
2019-05-16T10:41:37.098Z,68.03
2019-05-16T10:44:07.741Z,72.80
2019-05-16T10:46:38.156Z,83.40
2019-05-16T10:49:08.518Z,79.47
2019-05-16T10:51:39.011Z,94.50
2019-05-16T10:54:14.320Z,79.67
2019-05-16T10:56:43.300Z,95.80
2019-05-16T10:59:53.177Z,81.80
2019-05-16T11:01:47.237Z,87.37
2019-05-16T11:04:28.649Z,74.90
2019-05-16T11:06:49.884Z,72.93
2019-05-16T11:09:20.287Z,63.93
2019-05-16T11:11:50.758Z,82.20
2019-05-16T11:14:21.114Z,88.33
2019-05-16T11:16:51.702Z,73.40
2019-05-16T11:19:24.651Z,81.23
2019-05-16T11:21:54.140Z,73.70
2019-05-16T11:24:27.088Z,85.93
2019-05-16T11:26:56.801Z,72.83
2019-05-16T11:29:28.606Z,70.75
2019-05-16T11:31:59.129Z,69.93
2019-05-16T11:34:29.439Z,73.83
2019-05-16T11:36:59.897Z,65.60
2019-05-16T11:39:30.298Z,67.67
2019-05-16T11:42:00.787Z,67.93
2019-05-16T11:44:31.192Z,59.30
2019-05-16T11:47:01.593Z,58.25
2019-05-16T11:49:32.468Z,60.35
2019-05-16T11:52:02.928Z,62.73
2019-05-16T11:54:33.297Z,59.30
2019-05-16T11:57:06.638Z,40.55
2019-05-16T11:59:38.272Z,50.58
2019-05-16T12:02:10.269Z,51.42
2019-05-16T12:04:40.684Z,46.25
2019-05-16T12:07:11.820Z,50.92
2019-05-16T12:09:47.228Z,44.42
2019-05-16T12:12:16.492Z,45.03
2019-05-16T12:14:47.009Z,50.67
2019-05-16T12:17:17.389Z,43.20
2019-05-16T12:19:50.289Z,42.23
2019-05-16T12:22:19.761Z,45.95
2019-05-16T12:24:50.189Z,48.85
2019-05-16T12:27:20.929Z,52.70
2019-05-16T12:29:55.285Z,44.35
2019-05-16T12:32:23.451Z,45.20
2019-05-16T12:34:53.835Z,41.45
2019-05-16T12:37:24.290Z,46.80
2019-05-16T12:39:57.258Z,36.03
2019-05-16T12:42:27.176Z,45.85
2019-05-16T12:44:57.711Z,44.38
2019-05-16T12:47:29.367Z,36.13
2019-05-16T12:50:01.362Z,36.98
2019-05-16T12:52:32.839Z,43.28
2019-05-16T12:55:03.413Z,37.90
2019-05-16T12:57:34.160Z,39.42
2019-05-16T13:00:07.252Z,37.55
2019-05-16T13:02:38.004Z,34.73
2019-05-16T13:05:10.731Z,38.00
2019-05-16T13:07:41.165Z,38.67
2019-05-16T13:10:12.430Z,41.42
2019-05-16T13:12:42.811Z,39.33
2019-05-16T13:15:13.548Z,44.48
2019-05-16T13:17:47.152Z,36.42
2019-05-16T13:20:17.933Z,37.93
2019-05-16T13:22:48.436Z,42.85
2019-05-16T13:25:19.475Z,38.95
2019-05-16T13:27:50.422Z,38.85
2019-05-16T13:30:20.786Z,35.15
2019-05-16T13:32:51.168Z,31.57
2019-05-16T13:35:21.628Z,28.90
2019-05-16T13:37:52.053Z,28.77
2019-05-16T13:40:22.820Z,31.00
2019-05-16T13:42:53.297Z,29.48
2019-05-16T13:45:27.206Z,30.95
2019-05-16T13:47:57.402Z,27.10
2019-05-16T13:50:28.106Z,28.87
2019-05-16T13:52:58.894Z,29.40
2019-05-16T13:55:29.407Z,31.45
2019-05-16T13:58:00.500Z,31.20
2019-05-16T14:00:30.862Z,30.05
2019-05-16T14:03:01.395Z,31.82
2019-05-16T14:05:32.259Z,26.10
2019-05-16T14:08:02.694Z,28.30
2019-05-16T14:10:33.128Z,30.55
2019-05-16T14:13:03.727Z,29.12
2019-05-16T14:15:36.736Z,29.07
2019-05-16T14:18:08.056Z,28.32
2019-05-16T14:20:38.713Z,26.07
2019-05-16T14:23:09.209Z,26.37
2019-05-16T14:25:39.915Z,25.35
2019-05-16T14:28:10.367Z,27.62
2019-05-16T14:30:40.829Z,28.83
2019-05-16T14:33:13.706Z,27.40
2019-05-16T14:35:43.463Z,28.40
2019-05-16T14:38:14.037Z,30.75
2019-05-16T14:40:49.853Z,28.20
2019-05-16T14:43:17.289Z,23.77
2019-05-16T14:45:48.971Z,23.50
2019-05-16T14:48:19.471Z,23.55
2019-05-16T14:50:49.966Z,21.90
2019-05-16T14:53:20.353Z,19.42
2019-05-16T14:55:50.755Z,21.33
2019-05-16T14:58:21.121Z,20.88
2019-05-16T15:00:51.521Z,18.45
2019-05-16T15:03:22.045Z,19.90
2019-05-16T15:05:55.299Z,18.55
2019-05-16T15:08:24.435Z,19.75
2019-05-16T15:10:57.235Z,17.12
2019-05-16T15:13:28.006Z,17.85
2019-05-16T15:15:58.832Z,19.87
2019-05-16T15:18:29.303Z,16.57
2019-05-16T15:20:59.817Z,17.52
2019-05-16T15:23:30.195Z,19.07
2019-05-16T15:26:03.266Z,18.77
2019-05-16T15:28:33.677Z,21.60
2019-05-16T15:31:04.177Z,19.80
2019-05-16T15:33:36.536Z,25.70
2019-05-16T15:36:08.532Z,20.82
2019-05-16T15:38:38.659Z,19.15
2019-05-16T15:41:09.062Z,19.45
2019-05-16T15:43:39.517Z,19.07
2019-05-16T15:46:09.899Z,24.67
2019-05-16T15:48:40.257Z,21.45
2019-05-16T15:51:11.350Z,22.73
2019-05-16T15:53:42.701Z,22.00
2019-05-16T15:56:13.151Z,17.25
2019-05-16T15:58:43.735Z,24.72
2019-05-16T16:01:14.137Z,24.70
2019-05-16T16:03:47.063Z,21.93
2019-05-16T16:06:17.825Z,20.10
2019-05-16T16:08:48.593Z,23.95
2019-05-16T16:11:19.033Z,17.57
2019-05-16T16:13:49.685Z,20.82
2019-05-16T16:16:20.574Z,18.55
2019-05-16T16:18:51.073Z,21.40
2019-05-16T16:21:22.626Z,20.12
2019-05-16T16:23:53.049Z,21.37
2019-05-16T16:26:23.454Z,28.98
2019-05-16T16:28:54.980Z,17.37
2019-05-16T16:31:27.450Z,20.82
2019-05-16T16:33:57.775Z,20.32
2019-05-16T16:36:28.181Z,18.07
2019-05-16T16:39:01.020Z,22.98
2019-05-16T16:41:33.298Z,30.17
2019-05-16T16:44:03.695Z,22.85
2019-05-16T16:46:34.285Z,21.70
2019-05-16T16:49:04.655Z,21.52
2019-05-16T16:51:37.493Z,26.17
2019-05-16T16:54:07.733Z,25.77
2019-05-16T16:56:38.354Z,24.15
2019-05-16T16:59:08.805Z,30.48
2019-05-16T17:01:39.224Z,24.05
2019-05-16T17:04:10.159Z,28.27
2019-05-16T17:06:40.797Z,25.20
2019-05-16T17:09:11.220Z,28.73
2019-05-16T17:11:41.845Z,29.15
2019-05-16T17:14:12.784Z,29.50
2019-05-16T17:16:43.367Z,29.37
2019-05-16T17:19:14.564Z,25.82
2019-05-16T17:21:55.133Z,27.70
2019-05-16T17:24:17.667Z,28.38
2019-05-16T17:26:48.051Z,28.07
2019-05-16T17:29:20.457Z,35.35
2019-05-16T17:31:55.699Z,39.45
2019-05-16T17:34:23.735Z,28.42
2019-05-16T17:36:57.174Z,33.53
2019-05-16T17:39:28.426Z,33.15
2019-05-16T17:41:58.937Z,29.70
2019-05-16T17:44:29.423Z,35.65
2019-05-16T17:46:59.985Z,44.70
2019-05-16T17:49:30.521Z,68.55
2019-05-16T17:52:01.253Z,52.78
2019-05-16T17:54:31.794Z,79.62
2019-05-16T17:57:02.191Z,52.40
2019-05-16T17:59:33.859Z,55.90
2019-05-16T18:02:06.334Z,34.80
2019-05-16T18:04:41.066Z,42.90
2019-05-16T18:07:11.131Z,35.63
2019-05-16T18:09:43.281Z,41.15
2019-05-16T18:12:13.675Z,36.55
2019-05-16T18:14:47.461Z,41.18
2019-05-16T18:17:17.823Z,35.38
2019-05-16T18:19:49.833Z,41.77
2019-05-16T18:22:20.437Z,38.70
2019-05-16T18:24:51.312Z,33.73
2019-05-16T18:27:21.789Z,34.40
2019-05-16T18:29:52.233Z,35.92
2019-05-16T18:32:22.697Z,39.03
2019-05-16T18:34:53.267Z,35.92
2019-05-16T18:37:23.707Z,36.42
2019-05-16T18:39:56.404Z,36.53
2019-05-16T18:42:27.562Z,39.63
2019-05-16T18:44:59.660Z,38.38
2019-05-16T18:47:29.995Z,34.10
2019-05-16T18:50:00.389Z,41.23
2019-05-16T18:52:30.817Z,39.98
2019-05-16T18:55:01.405Z,46.80
2019-05-16T18:57:31.800Z,39.35
2019-05-16T19:00:03.210Z,59.13
2019-05-16T19:02:36.926Z,46.18
2019-05-16T19:05:08.731Z,41.25
2019-05-16T19:07:41.483Z,41.40
2019-05-16T19:10:12.507Z,48.28
2019-05-16T19:12:43.269Z,57.80
2019-05-16T19:15:14.516Z,58.38
2019-05-16T19:17:45.147Z,67.32
2019-05-16T19:20:17.423Z,71.67
2019-05-16T19:22:47.956Z,71.67
2019-05-16T19:25:19.359Z,69.10
2019-05-16T19:27:51.574Z,75.40
2019-05-16T19:30:22.487Z,82.37
2019-05-16T19:32:53.173Z,82.43
2019-05-16T19:35:23.568Z,86.90
2019-05-16T19:37:54.008Z,99.40
2019-05-16T19:40:24.654Z,102.90
2019-05-16T19:42:56.576Z,101.87
2019-05-16T19:45:27.647Z,107.33
2019-05-16T19:47:58.199Z,102.53
2019-05-16T19:50:28.727Z,100.87
2019-05-16T19:52:59.749Z,114.53
2019-05-16T19:55:30.635Z,105.60
2019-05-16T19:58:01.048Z,138.87
2019-05-16T20:00:31.457Z,112.80
2019-05-16T20:03:01.879Z,101.37
2019-05-16T20:05:32.539Z,114.10
2019-05-16T20:08:03.052Z,97.33
2019-05-16T20:10:33.458Z,106.37
2019-05-16T20:13:03.956Z,112.10
2019-05-16T20:15:36.391Z,128.13
2019-05-16T20:18:07.681Z,133.87
2019-05-16T20:20:38.693Z,122.63
2019-05-16T20:23:09.164Z,124.57
2019-05-16T20:25:39.634Z,127.33
2019-05-16T20:28:09.958Z,131.47
2019-05-16T20:30:41.437Z,122.03
2019-05-16T20:33:13.246Z,138.13
2019-05-16T20:35:43.645Z,164.67
2019-05-16T20:38:13.988Z,195.53
2019-05-16T20:40:46.450Z,134.70
2019-05-16T20:43:17.363Z,152.27
2019-05-16T20:45:47.908Z,155.67
2019-05-16T20:48:18.767Z,214.83
2019-05-16T20:50:49.714Z,220.93
2019-05-16T20:53:20.310Z,133.33
2019-05-16T20:55:51.858Z,160.83
2019-05-16T20:58:22.280Z,172.13
2019-05-16T21:00:52.835Z,131.53
2019-05-16T21:03:23.871Z,152.67
2019-05-16T21:05:57.902Z,149.63
2019-05-16T21:08:27.221Z,159.13
2019-05-16T21:10:57.876Z,142.03
2019-05-16T21:13:28.202Z,132.37
2019-05-16T21:15:58.722Z,188.47
2019-05-16T21:18:31.016Z,162.93
2019-05-16T21:21:03.413Z,159.47
2019-05-16T21:23:33.824Z,167.73
2019-05-16T21:26:04.362Z,195.97
2019-05-16T21:28:36.765Z,176.80
2019-05-16T21:31:07.513Z,149.00
2019-05-16T21:33:38.400Z,149.87
2019-05-16T21:36:08.888Z,148.23
2019-05-16T21:38:39.789Z,127.57
2019-05-16T21:41:10.189Z,158.73
2019-05-16T21:43:40.522Z,160.87
2019-05-16T21:46:11.000Z,98.63
2019-05-16T21:48:41.507Z,110.73
2019-05-16T21:51:11.904Z,118.07
2019-05-16T21:53:42.366Z,49.00
2019-05-16T21:56:12.735Z,101.63
2019-05-16T21:58:43.112Z,96.63
2019-05-16T22:01:17.254Z,109.03
2019-05-16T22:03:47.851Z,127.80
2019-05-16T22:06:20.514Z,131.70
2019-05-16T22:08:51.094Z,110.03
2019-05-16T22:11:21.534Z,77.47
2019-05-16T22:13:53.578Z,108.87
2019-05-16T22:16:24.004Z,94.53
2019-05-16T22:18:56.446Z,120.43
2019-05-16T22:21:27.117Z,93.10
2019-05-16T22:23:58.162Z,79.00
2019-05-16T22:26:28.644Z,87.80
2019-05-16T22:28:58.952Z,95.70
2019-05-16T22:31:29.534Z,92.63
2019-05-16T22:33:59.864Z,69.10
2019-05-16T22:36:30.322Z,71.20
2019-05-16T22:39:00.704Z,72.27
2019-05-16T22:41:32.586Z,83.73
2019-05-16T22:44:02.989Z,80.67
2019-05-16T22:46:33.398Z,55.60
2019-05-16T22:49:03.768Z,66.40
2019-05-16T22:51:36.517Z,58.90
2019-05-16T22:54:07.669Z,48.27
2019-05-16T22:56:38.352Z,51.97
2019-05-16T22:59:08.811Z,41.13
2019-05-16T23:01:39.231Z,48.35
2019-05-16T23:04:10.618Z,46.23
2019-05-16T23:06:41.008Z,40.47
2019-05-16T23:09:11.622Z,37.07
2019-05-16T23:11:42.074Z,31.33
2019-05-16T23:14:12.881Z,21.83
2019-05-16T23:16:43.364Z,21.17
2019-05-16T23:19:13.754Z,23.07
2019-05-16T23:21:44.135Z,23.40
2019-05-16T23:24:14.522Z,25.33
2019-05-16T23:26:46.847Z,24.93
2019-05-16T23:29:17.170Z,25.47
2019-05-16T23:31:50.462Z,30.87
2019-05-16T23:34:19.588Z,28.23
2019-05-16T23:36:50.007Z,32.07
2019-05-16T23:39:20.409Z,31.03
2019-05-16T23:41:50.754Z,32.13
2019-05-16T23:44:21.163Z,33.83
2019-05-16T23:46:51.612Z,31.70
2019-05-16T23:49:23.282Z,34.47
2019-05-16T23:51:53.633Z,36.73
2019-05-16T23:54:24.082Z,33.97
2019-05-16T23:56:54.420Z,36.27
2019-05-16T23:59:24.840Z,38.13
